Time;durP1;ratioP1;P1;durP2;ratioP2;P2;SDS_P1;SDS_P2;PMS_P1;PMS_P2;Temp;Humidity;BMP_temperature;BMP_pressure;BME280_temperature;BME280_humidity;BME280_pressure;Samples;Min_cycle;Max_cycle;Signal;HPM_P1;HPM_P2
2024/03/10 00:04:22;;;;;;;62.00;33.30;;;;;;;4.15;96.14;98530.03;270826;1276;22350;-84
2024/03/10 00:10:24;;;;;;;62.90;30.90;;;;;;;4.11;96.37;98527.93;271588;1264;22417;-85
2024/03/10 00:16:40;;;;;;;70.70;34.00;;;;;;;4.07;96.77;98530.20;272378;1277;22235;-84
2024/03/10 00:23:05;;;;;;;64.40;33.00;;;;;;;4.03;96.98;98524.29;271594;1276;22176;-84
2024/03/10 00:29:07;;;;;;;62.40;32.30;;;;;;;4.01;97.43;98531.20;272365;1267;23025;-84
2024/03/10 00:35:34;;;;;;;64.50;30.50;;;;;;;4.01;97.74;98543.20;272426;1284;22300;-85
2024/03/10 00:41:36;;;;;;;60.00;31.50;;;;;;;4.03;97.88;98547.43;271635;1276;22384;-84
2024/03/10 00:47:38;;;;;;;56.60;28.70;;;;;;;4.05;98.09;98549.16;271825;1276;22201;-85
2024/03/10 00:53:40;;;;;;;59.80;28.60;;;;;;;4.04;98.46;98544.44;272282;1272;22631;-86
2024/03/10 00:59:42;;;;;;;62.10;30.20;;;;;;;4.04;98.88;98544.84;271895;1276;22664;-84
2024/03/10 01:05:46;;;;;;;69.30;35.10;;;;;;;3.99;98.65;98541.42;271607;1276;22343;-84
2024/03/10 01:11:57;;;;;;;75.50;38.80;;;;;;;3.91;98.54;98536.16;272017;1277;22196;-84
2024/03/10 01:18:22;;;;;;;73.00;36.90;;;;;;;3.86;98.67;98528.20;272294;1277;22179;-84
2024/03/10 01:24:24;;;;;;;71.80;35.80;;;;;;;3.82;98.79;98521.48;271254;1276;22289;-84
2024/03/10 01:30:26;;;;;;;68.50;35.40;;;;;;;3.76;99.07;98515.52;270755;1276;22212;-84
2024/03/10 01:36:29;;;;;;;67.50;32.60;;;;;;;3.69;99.20;98507.19;271995;1274;22183;-84
2024/03/10 01:42:32;;;;;;;69.70;35.00;;;;;;;3.62;99.19;98500.33;271692;1269;22214;-84
2024/03/10 01:48:37;;;;;;;66.80;34.10;;;;;;;3.57;99.51;98503.80;272126;1280;23172;-83
2024/03/10 01:54:39;;;;;;;63.60;33.00;;;;;;;3.54;99.68;98498.83;269789;1276;22607;-83
2024/03/10 02:00:44;;;;;;;69.30;34.10;;;;;;;3.47;99.73;98492.52;270113;1271;252539;-83
2024/03/10 02:07:25;;;;;;;68.20;34.00;;;;;;;3.37;99.86;98490.29;271609;1276;22317;-84
2024/03/10 02:13:27;;;;;;;68.80;35.00;;;;;;;3.28;99.98;98491.55;271676;1276;22221;-83
2024/03/10 02:19:29;;;;;;;71.20;34.70;;;;;;;3.20;99.98;98482.17;271679;1271;24600;-83
2024/03/10 02:25:40;;;;;;;64.50;33.20;;;;;;;3.10;100.00;98473.55;272314;1277;22186;-83
2024/03/10 02:50:46;;;;;;;73.50;37.20;;;;;;;2.62;100.00;98455.16;271514;1277;22247;-92
2024/03/10 02:56:49;;;;;;;80.30;37.30;;;;;;;2.54;100.00;98456.65;271212;1277;22225;-92
2024/03/10 03:02:52;;;;;;;75.30;36.90;;;;;;;2.47;100.00;98459.23;269498;1277;23167;-91
2024/03/10 03:08:54;;;;;;;70.40;36.00;;;;;;;2.46;100.00;98453.30;271495;1277;22324;-93
2024/03/10 03:14:56;;;;;;;83.30;40.80;;;;;;;2.40;100.00;98449.25;270166;1277;22553;-91
2024/03/10 03:20:59;;;;;;;76.70;39.30;;;;;;;2.35;100.00;98445.90;269001;1277;25262;-90
2024/03/10 03:27:02;;;;;;;77.20;37.80;;;;;;;2.27;100.00;98443.95;268891;1277;22561;-91
2024/03/10 03:33:04;;;;;;;76.50;36.80;;;;;;;2.22;100.00;98438.52;269897;1278;22422;-92
2024/03/10 03:39:11;;;;;;;75.80;37.90;;;;;;;2.23;100.00;98437.31;270195;1278;22740;-92
2024/03/10 03:45:12;;;;;;;70.20;35.70;;;;;;;2.32;100.00;98434.55;269079;1277;23302;-92
2024/03/10 03:51:16;;;;;;;79.00;39.00;;;;;;;2.38;100.00;98432.66;269607;1277;22366;-92
2024/03/10 03:57:19;;;;;;;79.80;38.60;;;;;;;2.36;100.00;98431.15;271368;1277;22374;-92
2024/03/10 04:03:21;;;;;;;77.30;37.80;;;;;;;2.26;100.00;98421.66;271405;1277;22362;-91
2024/03/10 04:09:23;;;;;;;73.50;37.00;;;;;;;2.16;100.00;98413.23;271279;1277;22431;-90
2024/03/10 04:15:25;;;;;;;79.70;39.90;;;;;;;2.07;100.00;98408.89;272374;1278;22387;-91
2024/03/10 04:21:28;;;;;;;76.50;37.90;;;;;;;2.04;100.00;98412.48;271247;1279;22216;-90
2024/03/10 04:27:30;;;;;;;78.00;38.10;;;;;;;2.02;100.00;98391.04;271278;1276;22223;-90
2024/03/10 04:33:33;;;;;;;72.70;36.40;;;;;;;2.00;100.00;98381.58;271266;1277;23424;-92
2024/03/10 04:39:37;;;;;;;80.20;38.40;;;;;;;1.99;100.00;98390.27;271231;1277;22311;-91
2024/03/10 04:45:39;;;;;;;72.80;35.30;;;;;;;1.99;100.00;98405.38;269932;1277;22210;-93
2024/03/10 04:51:41;;;;;;;72.60;36.10;;;;;;;1.95;100.00;98410.55;271496;1276;22577;-92
2024/03/10 04:57:45;;;;;;;76.20;38.20;;;;;;;1.92;100.00;98401.88;271051;1276;22424;-89
2024/03/10 05:03:49;;;;;;;68.20;36.40;;;;;;;1.85;100.00;98397.85;270580;1276;22621;-91
2024/03/10 05:09:52;;;;;;;71.90;33.60;;;;;;;1.77;100.00;98405.61;270885;1277;23481;-93
2024/03/10 05:15:54;;;;;;;72.10;35.60;;;;;;;1.70;100.00;98411.03;270407;1276;22312;-92
2024/03/10 05:21:56;;;;;;;68.70;33.60;;;;;;;1.62;100.00;98415.39;271583;1276;23190;-93
2024/03/10 05:27:58;;;;;;;70.40;34.70;;;;;;;1.55;100.00;98424.52;271460;1277;22931;-93
2024/03/10 05:34:00;;;;;;;70.10;34.70;;;;;;;1.52;100.00;98426.04;270322;1276;22206;-91
2024/03/10 05:40:06;;;;;;;65.00;31.70;;;;;;;1.48;100.00;98406.27;271121;1277;23689;-91
2024/03/10 05:46:09;;;;;;;68.80;30.90;;;;;;;1.45;100.00;98389.65;271528;1276;22341;-91
2024/03/10 05:52:12;;;;;;;60.80;30.80;;;;;;;1.49;100.00;98382.00;271217;1276;22379;-92
2024/03/10 05:58:13;;;;;;;63.70;31.80;;;;;;;1.56;100.00;98383.57;271308;1277;22221;-89
2024/03/10 06:04:16;;;;;;;60.00;31.10;;;;;;;1.69;100.00;98391.27;270850;1277;22578;-92
2024/03/10 06:10:21;;;;;;;65.20;33.30;;;;;;;1.88;100.00;98408.83;269975;1277;22275;-91
2024/03/10 06:16:23;;;;;;;65.60;33.10;;;;;;;2.07;100.00;98408.29;271162;1277;22496;-90
2024/03/10 06:28:50;;;;;;;61.20;31.10;;;;;;;2.37;100.00;98399.14;271261;1276;22556;-92
2024/03/10 06:34:55;;;;;;;52.70;28.20;;;;;;;2.53;100.00;98401.68;271207;1276;22219;-92
2024/03/10 06:40:57;;;;;;;59.80;28.50;;;;;;;2.71;100.00;98399.41;271352;1276;22393;-91
2024/03/10 06:46:59;;;;;;;52.30;27.70;;;;;;;2.89;100.00;98389.79;271246;1277;23341;-91
2024/03/10 06:53:01;;;;;;;48.50;26.90;;;;;;;3.08;100.00;98392.64;270154;1277;22534;-92
2024/03/10 06:59:03;;;;;;;52.60;26.90;;;;;;;3.26;100.00;98400.65;271087;1277;22225;-91
2024/03/10 07:05:06;;;;;;;52.00;27.90;;;;;;;3.40;100.00;98391.17;271254;1277;22268;-90
2024/03/10 07:11:10;;;;;;;50.30;26.00;;;;;;;3.57;100.00;98381.79;271161;1276;22430;-91
2024/03/10 07:17:12;;;;;;;51.40;25.80;;;;;;;3.77;100.00;98380.66;271465;1276;22327;-90
2024/03/10 07:23:14;;;;;;;42.20;23.50;;;;;;;4.01;100.00;98380.36;271466;1276;22298;-92
2024/03/10 07:29:16;;;;;;;47.90;25.90;;;;;;;4.28;100.00;98371.65;271448;1276;22481;-91
2024/03/10 07:35:18;;;;;;;47.60;24.90;;;;;;;4.56;100.00;98371.34;271191;1276;23094;-92
2024/03/10 07:41:20;;;;;;;42.20;24.00;;;;;;;4.84;100.00;98371.10;271157;1277;22655;-91
2024/03/10 07:47:22;;;;;;;42.40;23.30;;;;;;;5.14;100.00;98366.37;269794;1277;23783;-89
2024/03/10 07:53:24;;;;;;;41.20;24.00;;;;;;;5.50;100.00;98365.36;270255;1276;22424;-92
2024/03/10 07:59:27;;;;;;;41.00;22.90;;;;;;;6.07;100.00;98357.98;270541;1276;22424;-90
2024/03/10 08:05:36;;;;;;;40.20;22.60;;;;;;;6.75;100.00;98355.96;271428;1276;22217;-92
2024/03/10 08:11:44;;;;;;;30.60;18.80;;;;;;;7.60;100.00;98344.32;270246;1273;22504;-91
2024/03/10 08:18:04;;;;;;;;;;;;;;;;;;;;;
2024/03/10 08:24:13;;;;;;;32.40;18.50;;;;;;;8.96;100.00;98336.81;270485;1270;23559;-90
2024/03/10 08:30:31;;;;;;;30.50;17.50;;;;;;;9.18;100.00;98327.05;271311;1276;23493;-91
2024/03/10 08:36:54;;;;;;;28.30;18.30;;;;;;;9.18;100.00;98329.92;270616;1277;22432;-91
2024/03/10 08:43:00;;;;;;;31.20;19.00;;;;;;;9.60;100.00;98320.46;271031;1277;22492;-91
2024/03/10 08:49:02;;;;;;;33.00;18.20;;;;;;;9.96;100.00;98315.52;270711;1278;22562;-92
2024/03/10 08:55:12;;;;;;;26.60;17.20;;;;;;;10.52;99.75;98317.18;270103;1277;22233;-92
2024/03/10 09:01:16;;;;;;;25.40;15.80;;;;;;;10.81;97.42;98311.89;270982;1277;22429;-91
2024/03/10 09:07:20;;;;;;;24.30;15.80;;;;;;;11.08;97.36;98303.31;271262;1278;22458;-89
2024/03/10 09:13:22;;;;;;;23.70;16.20;;;;;;;11.83;96.55;98296.40;270462;1267;22538;-92
2024/03/10 09:19:24;;;;;;;24.40;15.90;;;;;;;12.32;95.89;98297.98;270410;1277;22452;-89
2024/03/10 09:25:30;;;;;;;21.50;14.60;;;;;;;12.76;94.40;98289.97;271068;1277;23390;-91
2024/03/10 09:31:33;;;;;;;20.80;14.30;;;;;;;13.42;93.56;98291.27;270326;1277;22470;-91
2024/03/10 09:37:39;;;;;;;20.90;13.90;;;;;;;14.01;89.68;98292.91;271372;1277;22952;-91
2024/03/10 09:43:49;;;;;;;21.10;14.00;;;;;;;13.80;87.86;98288.15;271460;1277;22353;-90
2024/03/10 09:49:52;;;;;;;21.10;14.40;;;;;;;13.53;88.19;98285.67;271309;1277;22468;-90
2024/03/10 09:55:54;;;;;;;21.80;14.10;;;;;;;14.16;87.69;98275.55;271298;1277;22431;-90
2024/03/10 10:01:57;;;;;;;19.40;14.40;;;;;;;14.22;85.18;98277.04;271366;1277;23050;-91
2024/03/10 10:08:12;;;;;;;21.30;14.00;;;;;;;13.74;83.67;98277.07;271258;1274;22169;-90
2024/03/10 10:14:15;;;;;;;22.90;14.10;;;;;;;13.59;83.22;98276.40;270426;1277;22414;-92
2024/03/10 10:20:28;;;;;;;21.40;13.30;;;;;;;13.72;82.15;98264.77;271818;1283;22204;-90
2024/03/10 10:26:31;;;;;;;20.30;12.20;;;;;;;14.40;81.46;98257.33;271165;1277;23126;-89
2024/03/10 10:32:47;;;;;;;20.60;12.90;;;;;;;14.90;78.28;98255.25;271100;1277;22322;-90
2024/03/10 10:39:06;;;;;;;20.20;12.10;;;;;;;14.74;77.16;98249.06;271824;1277;23301;-90
2024/03/10 10:45:25;;;;;;;17.80;12.10;;;;;;;14.86;77.23;98246.81;271121;1277;23374;-89
2024/03/10 10:51:39;;;;;;;16.10;12.20;;;;;;;15.04;76.21;98246.89;270908;1277;22453;-91
2024/03/10 10:57:50;;;;;;;17.90;11.60;;;;;;;14.77;76.00;98239.97;271809;1280;22225;-91
2024/03/10 11:03:58;;;;;;;15.40;11.10;;;;;;;15.14;75.24;98244.23;269836;1277;23335;-91
2024/03/10 11:11:07;;;;;;;17.10;11.40;;;;;;;15.29;74.18;98240.34;271722;1277;22556;-90
2024/03/10 11:17:17;;;;;;;17.30;10.30;;;;;;;14.96;72.81;98240.25;269010;1277;23327;-89
2024/03/10 11:23:46;;;;;;;15.00;10.70;;;;;;;14.59;71.99;98234.39;268595;1277;22395;-92
2024/03/10 11:29:58;;;;;;;16.30;10.20;;;;;;;14.36;72.11;98231.63;269249;1277;22540;-89
2024/03/10 11:36:12;;;;;;;15.20;10.40;;;;;;;14.30;71.54;98221.83;268445;1277;23459;-89
2024/03/10 11:42:21;;;;;;;13.90;9.70;;;;;;;14.25;71.46;98215.03;268840;1277;24027;-89
2024/03/10 11:48:31;;;;;;;15.00;9.90;;;;;;;14.25;71.85;98210.39;270867;1277;22208;-89
2024/03/10 11:54:36;;;;;;;13.80;9.40;;;;;;;14.28;71.61;98212.16;269896;1277;22558;-91
2024/03/10 12:00:38;;;;;;;14.00;9.10;;;;;;;14.35;71.56;98205.83;271204;1277;22353;-90
2024/03/10 12:06:43;;;;;;;12.20;9.20;;;;;;;14.57;71.60;98196.33;270992;1277;22230;-89
2024/03/10 12:12:50;;;;;;;12.50;9.20;;;;;;;14.76;71.50;98193.16;270876;1277;22546;-91
2024/03/10 12:19:00;;;;;;;12.40;9.00;;;;;;;14.85;70.87;98179.53;269414;1277;23405;-89
2024/03/10 12:25:13;;;;;;;12.70;8.50;;;;;;;14.79;70.05;98175.47;268970;1277;22498;-90
2024/03/10 12:31:27;;;;;;;13.90;8.40;;;;;;;14.70;70.15;98170.05;270116;1277;24357;-91
2024/03/10 12:37:38;;;;;;;10.80;7.60;;;;;;;14.84;70.46;98169.84;269125;1277;22497;-91
2024/03/10 12:43:41;;;;;;;12.10;7.70;;;;;;;14.91;69.47;98164.06;270789;1277;22259;-91
2024/03/10 12:49:46;;;;;;;8.20;6.20;;;;;;;14.91;69.42;98156.35;271094;1277;23078;-90
2024/03/10 12:56:05;;;;;;;7.80;5.00;;;;;;;14.93;69.07;98151.90;272026;1283;22380;-90
2024/03/10 13:02:12;;;;;;;6.30;4.70;;;;;;;14.92;69.08;98148.30;272159;1280;22766;-90
2024/03/10 13:08:36;;;;;;;6.30;4.50;;;;;;;14.92;68.78;98139.09;272435;1281;22222;-92
2024/03/10 13:15:00;;;;;;;;;;;;;;;;;;;;;
2024/03/10 13:22:22;;;;;;;5.00;3.50;;;;;;;14.92;65.88;98137.10;269455;1286;22700;-90
2024/03/10 13:30:00;;;;;;;5.00;3.30;;;;;;;14.80;64.47;98131.45;268349;1286;23214;-92
2024/03/10 13:37:46;;;;;;;4.90;3.60;;;;;;;14.69;64.28;98125.98;268636;1292;22318;-93
2024/03/10 13:44:47;;;;;;;6.30;3.80;;;;;;;14.57;64.60;98121.43;269470;1284;22385;-91
2024/03/10 13:51:41;;;;;;;;;;;;;;;;;;;;;
2024/03/10 13:58:56;;;;;;;7.60;4.20;;;;;;;14.38;65.26;98113.74;268512;1286;23534;-91
2024/03/10 14:05:34;;;;;;;5.50;3.60;;;;;;;14.32;65.27;98111.25;261365;1288;10164469;-92
2024/03/10 14:11:42;;;;;;;6.60;3.90;;;;;;;14.27;65.61;98110.95;270188;1284;22268;-91
2024/03/10 14:18:35;;;;;;;;;;;;;;;;;;;;;
2024/03/10 14:25:38;;;;;;;7.70;4.50;;;;;;;13.87;65.99;98110.25;271927;1277;22232;-91
2024/03/10 14:40:06;;;;;;;8.00;5.30;;;;;;;13.48;67.18;98112.98;271907;1277;22196;-92
2024/03/10 14:46:19;;;;;;;6.80;4.80;;;;;;;13.31;67.65;98110.48;272034;1280;22185;-90
2024/03/10 14:53:05;;;;;;;7.40;4.70;;;;;;;13.15;67.89;98108.73;269950;1276;23402;-92
2024/03/10 14:59:52;;;;;;;8.00;5.00;;;;;;;12.96;68.41;98117.34;270769;1278;22749;-92
2024/03/10 15:06:45;;;;;;;6.70;4.70;;;;;;;12.81;68.99;98112.98;269070;1285;23397;-89
2024/03/10 15:12:54;;;;;;;6.30;4.80;;;;;;;12.68;69.47;98119.33;268345;1286;23039;-92
2024/03/10 15:18:57;;;;;;;7.70;4.60;;;;;;;12.58;69.99;98123.59;271161;1281;22226;-91
2024/03/10 15:25:25;;;;;;;6.20;4.20;;;;;;;12.46;70.27;98121.05;271838;1276;22206;-93
2024/03/10 15:32:38;;;;;;;8.70;5.10;;;;;;;12.30;70.87;98128.42;270496;1292;23218;-90
2024/03/10 15:39:30;;;;;;;7.50;5.10;;;;;;;12.16;71.52;98131.14;270965;1283;23387;-91
2024/03/10 15:47:01;;;;;;;6.80;5.20;;;;;;;11.98;72.00;98128.56;270322;1276;22231;-91
2024/03/10 15:54:03;;;;;;;11.40;5.50;;;;;;;11.80;72.47;98130.27;271074;1284;22402;-89
2024/03/10 16:00:44;;;;;;;7.70;5.50;;;;;;;11.65;72.89;98130.84;272105;1278;22254;-91
2024/03/10 16:06:54;;;;;;;8.50;5.80;;;;;;;11.49;73.58;98136.09;272236;1280;22195;-91
2024/03/10 16:12:58;;;;;;;10.00;6.40;;;;;;;11.33;74.09;98138.54;271212;1280;22249;-92
2024/03/10 16:19:09;;;;;;;9.20;6.70;;;;;;;11.17;74.56;98142.07;272167;1285;22733;-89
2024/03/10 16:25:13;;;;;;;12.10;7.00;;;;;;;11.03;74.99;98142.38;271654;1277;22719;-91
2024/03/10 16:31:15;;;;;;;11.80;7.20;;;;;;;10.89;75.45;98143.59;271448;1278;25467;-92
2024/03/10 16:37:27;;;;;;;12.40;9.30;;;;;;;10.70;75.83;98145.45;271806;1276;22893;-91
2024/03/10 16:43:50;;;;;;;13.00;8.90;;;;;;;10.48;76.39;98148.33;272083;1285;22381;-89
2024/03/10 16:51:08;;;;;;;18.60;11.70;;;;;;;10.31;77.31;98150.15;271013;1283;22303;-89
2024/03/10 17:05:06;;;;;;;13.70;9.00;;;;;;;10.28;78.81;98152.50;269585;1286;22199;-91
2024/03/10 17:11:26;;;;;;;;;;;;;;;10.24;79.58;98153.75;270947;1285;22462;-90
2024/03/10 17:17:55;;;;;;;14.30;9.00;;;;;;;10.19;79.93;98158.14;271171;1280;22245;-90
2024/03/10 17:23:58;;;;;;;27.20;14.80;;;;;;;10.12;80.31;98156.97;271094;1281;22200;-90
2024/03/10 17:30:09;;;;;;;22.30;12.20;;;;;;;10.04;80.64;98157.65;269904;1280;22238;-91
2024/03/10 17:36:42;;;;;;;20.60;11.10;;;;;;;9.92;81.10;98159.75;272073;1277;22223;-91
2024/03/10 17:50:43;;;;;;;24.60;12.50;;;;;;;9.66;82.00;98156.77;272087;1286;22196;-90
2024/03/10 17:57:15;;;;;;;26.50;14.40;;;;;;;9.58;82.39;98154.27;272152;1279;22188;-92
2024/03/10 18:03:51;;;;;;;29.00;13.40;;;;;;;9.51;82.82;98144.10;272216;1280;22245;-90
2024/03/10 18:10:23;;;;;;;20.20;12.60;;;;;;;9.45;83.60;98142.44;272226;1277;22229;-90
2024/03/10 18:17:37;;;;;;;24.50;14.20;;;;;;;9.42;83.92;98142.60;272174;1278;22202;-89
2024/03/10 18:39:32;;;;;;;22.90;12.90;;;;;;;9.04;87.24;98155.52;272224;1285;22195;-91
2024/03/10 18:53:09;;;;;;;37.50;18.70;;;;;;;8.77;89.47;98165.45;272253;1285;22759;-89
2024/03/10 18:59:13;;;;;;;27.80;16.40;;;;;;;8.64;90.56;98171.79;272318;1277;22182;-89
2024/03/10 19:05:39;;;;;;;22.30;14.40;;;;;;;8.58;91.71;98177.98;271959;1280;22234;-90
2024/03/10 19:12:23;;;;;;;21.40;14.00;;;;;;;8.50;92.61;98174.19;272414;1284;22206;-92
2024/03/10 19:19:49;;;;;;;24.30;14.40;;;;;;;8.50;93.73;98174.42;271628;1277;22255;-90
2024/03/10 19:26:50;;;;;;;22.30;13.80;;;;;;;8.48;94.70;98167.95;271535;1288;23331;-91
2024/03/10 19:33:10;;;;;;;20.80;13.20;;;;;;;8.45;95.31;98171.98;271586;1288;22323;-89
2024/03/10 19:39:15;;;;;;;18.30;13.10;;;;;;;8.43;95.98;98168.70;271647;1280;22391;-89
2024/03/10 20:00:30;;;;;;;21.00;12.30;;;;;;;8.56;98.03;98164.56;271560;1283;22208;-89
2024/03/10 20:07:00;;;;;;;18.90;12.50;;;;;;;8.56;98.38;98155.29;271584;1283;22402;-90
2024/03/10 20:13:02;;;;;;;20.90;13.70;;;;;;;8.52;99.04;98156.52;271878;1277;22362;-91
2024/03/10 20:34:18;;;;;;;20.80;13.40;;;;;;;8.51;100.00;98160.58;263645;1276;10002355;-89
2024/03/10 20:41:16;;;;;;;20.20;13.70;;;;;;;8.52;100.00;98166.03;272017;1276;22390;-92
2024/03/10 20:47:18;;;;;;;22.20;13.70;;;;;;;8.52;100.00;98153.33;271141;1277;24076;-88
2024/03/10 20:53:51;;;;;;;19.10;12.80;;;;;;;8.50;100.00;98148.95;269952;1278;22243;-89
2024/03/10 21:00:18;;;;;;;18.80;12.20;;;;;;;8.51;100.00;98153.16;271872;1278;24207;-89
2024/03/10 21:07:16;;;;;;;18.80;12.60;;;;;;;8.53;100.00;98159.40;271949;1277;22725;-90
2024/03/10 21:14:08;;;;;;;23.30;14.10;;;;;;;8.53;100.00;98153.95;272188;1285;22244;-91
2024/03/10 21:20:51;;;;;;;25.90;15.80;;;;;;;8.47;100.00;98148.38;272245;1280;23415;-90
2024/03/10 21:34:50;;;;;;;22.70;14.20;;;;;;;8.26;100.00;98153.15;270738;1277;22221;-91
2024/03/10 21:56:47;;;;;;;26.40;15.20;;;;;;;8.09;100.00;98151.60;272085;1280;22197;-90
2024/03/10 22:10:38;;;;;;;44.70;22.80;;;;;;;7.88;100.00;98141.71;270010;1277;23670;-90
2024/03/10 22:39:40;;;;;;;31.20;17.00;;;;;;;7.50;100.00;98124.64;272386;1268;22230;-90
2024/03/10 22:46:03;;;;;;;29.50;16.00;;;;;;;7.44;100.00;98118.75;272129;1267;23081;-90
2024/03/10 22:59:42;;;;;;;28.90;16.20;;;;;;;7.33;100.00;98113.91;272333;1276;22164;-90
2024/03/10 23:05:53;;;;;;;25.20;16.10;;;;;;;7.30;100.00;98116.91;272577;1277;22386;-91
2024/03/10 23:12:56;;;;;;;27.80;16.60;;;;;;;7.27;100.00;98119.83;272272;1284;22196;-89
2024/03/10 23:28:32;;;;;;;26.90;16.80;;;;;;;7.19;100.00;98112.05;271621;1287;22280;-89
2024/03/10 23:36:15;;;;;;;22.20;13.90;;;;;;;7.14;100.00;98117.76;271669;1280;23372;-91
2024/03/10 23:50:36;;;;;;;24.40;14.20;;;;;;;7.05;100.00;98115.40;272054;1273;22244;-92
2024/03/10 23:56:44;;;;;;;26.10;14.70;;;;;;;7.03;100.00;98122.37;271914;1276;22223;-90
